createdAt,value
2018-02-23T00:04:45.614Z,24.83
2018-02-23T00:09:49.625Z,28.83
2018-02-23T00:14:57.504Z,25.80
2018-02-23T00:20:01.477Z,21.07
2018-02-23T00:25:06.237Z,28.57
2018-02-23T00:30:09.413Z,32.97
2018-02-23T00:35:14.668Z,27.20
2018-02-23T00:40:18.873Z,25.23
2018-02-23T00:45:27.518Z,33.90
2018-02-23T00:50:30.908Z,26.23
2018-02-23T00:55:35.865Z,28.13
2018-02-23T01:00:39.456Z,24.13
2018-02-23T01:05:44.085Z,22.90
2018-02-23T01:10:48.822Z,24.70
2018-02-23T01:15:53.933Z,21.70
2018-02-23T01:20:57.401Z,27.23
2018-02-23T01:26:02.678Z,37.17
2018-02-23T01:31:06.677Z,24.67
2018-02-23T01:36:11.691Z,35.60
2018-02-23T01:41:15.712Z,37.40
2018-02-23T01:46:19.129Z,35.63
2018-02-23T01:51:23.666Z,41.10
2018-02-23T01:56:28.269Z,40.10
2018-02-23T02:01:32.277Z,50.37
2018-02-23T02:06:37.052Z,17.97
2018-02-23T02:11:40.822Z,30.37
2018-02-23T02:16:48.549Z,35.17
2018-02-23T02:21:52.165Z,40.43
2018-02-23T02:26:57.393Z,37.87
2018-02-23T02:32:00.629Z,40.63
2018-02-23T02:37:07.473Z,40.13
2018-02-23T02:42:10.873Z,32.23
2018-02-23T02:47:17.377Z,38.63
2018-02-23T02:52:20.694Z,39.73
2018-02-23T02:57:28.511Z,43.53
2018-02-23T03:02:33.128Z,42.70
2018-02-23T03:07:40.606Z,47.93
2018-02-23T03:12:44.526Z,56.17
2018-02-23T03:17:48.954Z,51.20
2018-02-23T03:22:52.246Z,46.90
2018-02-23T03:27:56.961Z,50.87
2018-02-23T03:33:01.136Z,49.17
2018-02-23T03:38:07.716Z,40.93
2018-02-23T03:43:11.021Z,39.00
2018-02-23T03:48:15.270Z,49.30
2018-02-23T03:53:19.029Z,48.07
2018-02-23T03:58:22.465Z,45.90
2018-02-23T04:03:29.648Z,41.13
2018-02-23T04:08:33.098Z,46.20
2018-02-23T04:13:38.228Z,47.40
2018-02-23T04:18:41.649Z,51.13
2018-02-23T04:23:46.517Z,45.20
2018-02-23T04:28:50.071Z,41.80
2018-02-23T04:33:57.224Z,47.17
2018-02-23T04:39:01.329Z,108.90
2018-02-23T04:44:08.478Z,59.83
2018-02-23T04:49:12.050Z,47.70
2018-02-23T04:54:16.328Z,29.80
2018-02-23T04:59:20.509Z,41.03
2018-02-23T05:04:25.153Z,49.37
2018-02-23T05:09:29.633Z,59.40
2018-02-23T05:14:33.677Z,46.83
2018-02-23T05:19:38.145Z,60.07
2018-02-23T05:24:41.850Z,59.47
2018-02-23T05:29:45.508Z,61.27
2018-02-23T05:34:49.044Z,58.23
2018-02-23T05:39:53.329Z,64.40
2018-02-23T05:45:00.549Z,56.63
2018-02-23T05:50:04.817Z,61.73
2018-02-23T05:55:09.618Z,61.37
2018-02-23T06:00:13.401Z,45.10
2018-02-23T06:05:19.978Z,61.90
2018-02-23T06:10:23.527Z,51.07
2018-02-23T06:15:26.866Z,52.40
2018-02-23T06:20:30.534Z,74.20
2018-02-23T06:25:35.546Z,53.63
2018-02-23T06:30:39.723Z,63.27
2018-02-23T06:35:43.489Z,54.63
2018-02-23T06:40:47.537Z,46.47
2018-02-23T06:45:56.950Z,59.60
2018-02-23T06:51:00.842Z,64.70
2018-02-23T06:56:04.557Z,51.27
2018-02-23T07:01:09.006Z,47.57
2018-02-23T07:06:16.093Z,58.70
2018-02-23T07:11:19.385Z,49.73
2018-02-23T07:16:26.106Z,53.47
2018-02-23T07:21:29.578Z,51.17
2018-02-23T07:26:34.873Z,46.47
2018-02-23T07:31:38.303Z,59.83
2018-02-23T07:36:45.722Z,56.97
2018-02-23T07:41:49.048Z,48.90
2018-02-23T07:46:53.665Z,51.43
2018-02-23T07:51:57.479Z,52.60
2018-02-23T07:57:02.011Z,54.77
2018-02-23T08:02:05.679Z,49.87
2018-02-23T08:07:10.550Z,45.50
2018-02-23T08:12:14.724Z,61.13
2018-02-23T08:17:20.098Z,50.90
2018-02-23T08:22:24.641Z,40.50
2018-02-23T08:27:34.717Z,47.33
2018-02-23T08:32:38.313Z,35.70
2018-02-23T08:37:43.305Z,33.40
2018-02-23T08:42:51.554Z,39.83
2018-02-23T08:47:55.773Z,34.27
2018-02-23T08:53:03.029Z,34.00
2018-02-23T08:58:06.404Z,31.20
2018-02-23T09:03:10.325Z,22.47
2018-02-23T09:08:13.933Z,26.13
2018-02-23T09:13:21.169Z,38.50
2018-02-23T09:18:25.414Z,33.13
2018-02-23T09:23:30.685Z,28.57
2018-02-23T09:28:34.491Z,33.33
2018-02-23T10:36:43.519Z,23.90
2018-02-23T10:41:47.733Z,23.40
2018-02-23T10:46:54.251Z,26.43
2018-02-23T10:51:58.759Z,19.13
2018-02-23T10:57:04.411Z,20.40
2018-02-23T11:02:10.764Z,25.93
2018-02-23T11:07:16.346Z,24.97
2018-02-23T11:12:22.519Z,20.87
2018-02-23T11:17:27.017Z,23.80
2018-02-23T11:22:35.414Z,23.63
2018-02-23T11:27:42.064Z,21.37
2018-02-23T11:32:49.455Z,23.77
2018-02-23T11:37:54.898Z,25.43
2018-02-23T11:43:01.708Z,38.07
2018-02-23T11:48:08.237Z,20.90
2018-02-23T11:53:13.900Z,17.43
2018-02-23T11:58:18.892Z,19.13
2018-02-23T12:03:51.400Z,19.43
2018-02-23T12:08:55.579Z,17.50
2018-02-23T12:14:04.583Z,15.17
2018-02-23T12:19:08.887Z,15.57
2018-02-23T12:24:20.042Z,12.20
2018-02-23T12:29:25.591Z,41.53
2018-02-23T12:34:31.747Z,24.27
2018-02-23T12:39:38.649Z,22.23
2018-02-23T12:44:45.968Z,14.43
2018-02-23T12:49:51.264Z,17.43
2018-02-23T12:55:00.067Z,12.87
2018-02-23T13:00:04.695Z,14.70
2018-02-23T13:05:12.572Z,19.47
2018-02-23T13:10:17.067Z,21.60
2018-02-23T13:15:24.912Z,25.73
2018-02-23T13:20:30.673Z,28.07
2018-02-23T13:25:35.929Z,23.17
2018-02-23T13:30:41.360Z,26.50
2018-02-23T13:35:46.456Z,23.97
2018-02-23T13:40:56.773Z,49.03
2018-02-23T13:46:07.196Z,32.77
2018-02-23T13:51:11.702Z,23.67
2018-02-23T13:56:17.323Z,25.40
2018-02-23T14:01:21.147Z,68.23
2018-02-23T14:06:40.839Z,62.97
2018-02-23T14:11:50.140Z,13.20
2018-02-23T14:17:00.429Z,38.93
2018-02-23T14:22:07.901Z,33.30
2018-02-23T14:27:11.201Z,18.83
2018-02-23T14:32:16.063Z,29.33
2018-02-23T14:37:20.213Z,19.50
2018-02-23T14:42:24.910Z,37.40
2018-02-23T14:47:28.486Z,42.70
2018-02-23T14:52:33.266Z,35.07
2018-02-23T14:57:36.951Z,33.23
2018-02-23T15:02:40.762Z,17.10
2018-02-23T15:07:44.152Z,24.50
2018-02-23T15:12:48.071Z,25.87
2018-02-23T15:17:52.849Z,24.17
2018-02-23T15:23:00.517Z,22.50
2018-02-23T15:28:03.829Z,20.33
2018-02-23T15:33:08.193Z,22.90
2018-02-23T15:38:12.352Z,24.57
2018-02-23T15:43:19.434Z,29.17
2018-02-23T15:53:52.898Z,38.87
2018-02-23T15:58:56.318Z,37.00
2018-02-23T16:04:02.886Z,41.97
2018-02-23T16:09:06.277Z,24.67
2018-02-23T16:14:09.798Z,31.50
2018-02-23T16:19:14.206Z,26.80
2018-02-23T16:24:17.878Z,67.83
2018-02-23T16:29:22.795Z,135.43
2018-02-23T16:34:26.611Z,92.00
2018-02-23T16:39:30.855Z,177.20
2018-02-23T16:44:37.986Z,117.77
2018-02-23T16:49:42.024Z,104.77
2018-02-23T16:54:45.777Z,49.33
2018-02-23T16:59:49.091Z,78.53
2018-02-23T17:04:52.774Z,81.07
2018-02-23T17:09:56.165Z,68.23
2018-02-23T17:15:03.007Z,252.53
2018-02-23T17:20:07.150Z,143.70
2018-02-23T17:25:14.843Z,76.53
2018-02-23T17:30:18.371Z,132.80
2018-02-23T17:35:21.900Z,35.23
2018-02-23T17:40:27.218Z,52.40
2018-02-23T17:45:31.095Z,53.97
2018-02-23T17:50:35.238Z,54.77
2018-02-23T17:55:38.785Z,35.63
2018-02-23T18:00:43.034Z,72.60
2018-02-23T18:05:49.968Z,51.97
2018-02-23T18:10:54.255Z,29.67
2018-02-23T18:16:02.251Z,38.30
2018-02-23T18:21:05.884Z,35.67
2018-02-23T18:26:10.872Z,32.20
2018-02-23T18:31:21.109Z,35.77
2018-02-23T18:36:25.299Z,36.03
2018-02-23T18:41:29.458Z,68.77
2018-02-23T18:46:32.752Z,40.97
2018-02-23T18:51:39.649Z,46.87
2018-02-23T18:56:44.093Z,42.77
2018-02-23T19:01:47.671Z,50.57
2018-02-23T19:06:52.734Z,42.53
2018-02-23T19:11:57.708Z,32.50
2018-02-23T19:17:02.589Z,28.70
2018-02-23T19:22:08.998Z,34.20
2018-02-23T19:27:13.755Z,30.30
2018-02-23T19:32:17.623Z,24.17
2018-02-23T19:37:21.548Z,28.77
2018-02-23T19:42:26.202Z,29.50
2018-02-23T19:47:30.443Z,31.27
2018-02-23T19:52:33.934Z,26.13
2018-02-23T19:57:37.308Z,24.03
2018-02-23T20:02:40.845Z,33.43
2018-02-23T20:07:44.682Z,22.57
2018-02-23T20:12:48.455Z,26.77
2018-02-23T20:17:52.784Z,31.43
2018-02-23T20:22:57.639Z,32.47
2018-02-23T20:28:01.062Z,30.63
2018-02-23T20:33:04.841Z,38.27
2018-02-23T20:38:08.838Z,29.30
2018-02-23T20:43:13.121Z,30.13
2018-02-23T20:48:17.282Z,45.33
2018-02-23T20:53:24.431Z,57.80
2018-02-23T20:58:28.314Z,47.93
2018-02-23T21:03:33.485Z,29.13
2018-02-23T21:08:37.551Z,44.03
2018-02-23T21:13:44.737Z,30.23
2018-02-23T21:18:48.176Z,33.57
2018-02-23T21:23:55.019Z,130.77
2018-02-23T21:28:59.264Z,35.03
2018-02-23T21:34:05.962Z,28.67
2018-02-23T21:39:09.436Z,28.23
2018-02-23T21:44:14.365Z,23.57
2018-02-23T21:49:18.514Z,21.20
2018-02-23T21:54:25.658Z,34.60
2018-02-23T21:59:29.754Z,43.17
2018-02-23T22:04:33.599Z,32.10
2018-02-23T22:09:37.258Z,30.17
2018-02-23T22:14:43.734Z,32.23
2018-02-23T22:19:47.266Z,31.37
2018-02-23T22:24:50.952Z,31.20
2018-02-23T22:29:54.813Z,27.23
2018-02-23T22:35:01.750Z,17.77
2018-02-23T22:40:05.166Z,20.03
2018-02-23T22:45:09.998Z,23.53
2018-02-23T22:50:13.486Z,31.30
2018-02-23T22:55:16.860Z,33.60
2018-02-23T23:00:20.415Z,27.43
2018-02-23T23:05:24.734Z,14.07
2018-02-23T23:10:29.705Z,12.03
2018-02-23T23:15:33.066Z,16.67
2018-02-23T23:20:37.570Z,16.87
2018-02-23T23:25:40.966Z,20.03
2018-02-23T23:30:46.398Z,15.47
2018-02-23T23:35:50.561Z,21.80
2018-02-23T23:40:54.904Z,19.20
2018-02-23T23:45:58.455Z,23.87
2018-02-23T23:51:03.890Z,18.30
2018-02-23T23:56:08.157Z,18.50
